Pagina principale
METAR-TAF:

METAR-TAF

Aeroporti :

Gibuti, Gibuti

latitudine: 11-33N, longitudine: 043-10E, altezza: 49 m

METAR: mancante

Ora: 01:56 (22:56 UTC)

Previsione

Il bollettino è stato emesso 5 ore e 56 minuti fa, alle 17:00 UTC
Previsione valida dal 15 alle 18 UTC al 16 alle 18 UTC
Vento 3 kt da direzioni variabili
Visibilità: 8000 m
foschia
Evoluzione graduale
dal 16 alle 00 UTC al 16 alle 06 UTC
Vento 12 kt da ovest
Visibilità: 8000 m
Poco nuvoloso ad un'altezza di 2300 ft
foschia
Evoluzione graduale
dal 16 alle 06 UTC al 16 alle 12 UTC
Vento 10 kt da ovest
Visibilità: 6000 m
Nubi sparse ad un'altezza di 2300 ft
Evoluzione graduale
dal 16 alle 12 UTC al 16 alle 15 UTC
Vento 10 kt da est
Poco nuvoloso ad un'altezza di 3000 ft, Cumulonembo.

TAF: HDAM 151700Z 1518/1618 VRB03KT 8000 HZ NSC BECMG 1600/1606 28012KT 8000 HZ FEW023 BECMG 1606/1612 27010KT 6000 HZ/BLDU SCT023 BECMG 1612/1615 08010KT FEW030CB

Osservazioni e previsioni meteorologiche di più di 4000 aeroporti (messaggi METAR e TAF).

Le stazioni disponibili sono rappresentate dai dischi gialli e rossi sulla carta.

Puntare il mouse per vedere il nome della stazione.

Clicca sopra per visualizzare le osservazioni e previsioni meteorologiche.

Per cambiare la mappa : fare clic sui pulsanti verdi con una croce nera per ingrandire, il pulsante verde con un trattino per diminuire, o sulla freccia verde per le mappe adiacenti.


METAR-TAF: